Time;durP1;ratioP1;P1;durP2;ratioP2;P2;SDS_P1;SDS_P2;PMS_P1;PMS_P2;Temp;Humidity;BMP_temperature;BMP_pressure;BME280_temperature;BME280_humidity;BME280_pressure;Samples;Min_cycle;Max_cycle;Signal;HPM_P1;HPM_P2
2021/04/23 18:18:09;;;;;;;13.73;3.53;;;;;;;;;;5025825;27;20518;-67
2021/04/23 18:21:12;;;;;;;30.98;4.05;;;;;;;;;;2104494;27;20450;-50
2021/04/23 18:22:18;;;;;;;22.45;4.35;;;;;;;;;;2082024;28;20139;-43
2021/04/23 18:23:39;;;;;;;18.98;3.22;;;;;;;20.80;46.64;99361.31;2070914;28;20144;-69
2021/04/23 18:24:42;;;;;;;24.45;3.38;;;;;;;20.77;48.06;99372.69;2078232;28;21901;-51
2021/04/23 18:25:44;;;;;;;10.15;3.35;;;;;;;20.76;47.93;99365.66;2063854;28;20061;-56
2021/04/23 18:26:49;;;;;;;22.83;3.53;;;;;;;20.69;46.95;99368.63;2075989;28;20052;-50
2021/04/23 18:27:52;;;;;;;20.20;3.92;;;;;;;20.63;47.72;99366.19;2074296;28;20061;-46
2021/04/23 18:28:54;;;;;;;19.65;3.88;;;;;;;20.62;46.78;99375.38;2070139;28;20175;-54
2021/04/23 18:29:55;;;;;;;17.00;2.83;;;;;;;20.60;46.95;99364.00;2070715;28;20559;-53
2021/04/23 18:30:56;;;;;;;19.10;3.28;;;;;;;20.63;47.96;99371.63;2073857;28;20103;-60
2021/04/23 18:31:58;;;;;;;25.67;3.58;;;;;;;20.65;47.38;99364.84;2079607;28;20038;-47
2021/04/23 18:33:00;;;;;;;15.82;3.20;;;;;;;20.74;46.71;99370.53;2078859;28;20041;-50
2021/04/23 19:41:50;;;;;;;13.80;6.45;;;;;;;12.80;70.54;99361.34;2131495;22;20727;-27
2021/04/23 19:42:54;;;;;;;6.50;4.72;;;;;;;13.51;74.08;99337.88;2082656;28;20107;-26
2021/04/23 19:47:45;;;;;;;6.38;5.13;;;;;;;19.50;59.70;99343.28;2098152;28;20405;-39
2021/04/23 19:48:47;;;;;;;6.60;4.43;;;;;;;20.08;58.67;99391.97;2097134;28;20040;-44
2021/04/23 19:49:49;;;;;;;;;;;;;;;20.07;58.57;99544.59;2089361;28;20053;-45
2021/04/23 19:50:50;;;;;;;7.63;4.65;;;;;;;20.79;61.00;99657.69;2096170;28;19986;-40
2021/04/23 19:51:51;;;;;;;10.32;4.32;;;;;;;21.24;57.42;99599.31;2099576;28;20570;-41
2021/04/23 19:52:53;;;;;;;;;;;;;;;21.28;58.68;99627.53;2098016;28;20052;-38
2021/04/23 19:57:02;;;;;;;7.15;6.10;;;;;;;19.38;46.56;99682.09;2096829;28;20766;-34
2021/04/23 19:58:04;;;;;;;7.88;5.30;;;;;;;18.87;49.79;99688.75;2053791;28;20053;-30
2021/04/23 19:59:05;;;;;;;6.50;4.93;;;;;;;17.88;48.22;99679.34;2071084;28;21113;-40
2021/04/23 20:00:06;;;;;;;;;;;;;;;17.64;49.20;99646.28;2067178;28;20065;-51
2021/04/23 20:01:07;;;;;;;10.30;6.18;;;;;;;16.25;52.06;99617.53;2051737;28;20289;-66
2021/04/23 20:02:10;;;;;;;;;;;;;;;16.38;56.24;99641.50;2077741;28;20069;-61
2021/04/23 20:03:12;;;;;;;28.52;8.63;;;;;;;16.51;57.56;99691.56;2061222;28;20072;-55
2021/04/23 20:04:13;;;;;;;;;;;;;;;16.80;56.29;99786.75;2058393;28;20127;-50
2021/04/23 20:05:14;;;;;;;11.82;5.70;;;;;;;17.19;58.85;99148.78;2036604;28;579374;-42
2021/04/23 20:06:17;;;;;;;15.60;6.07;;;;;;;17.80;59.41;99198.00;2067539;28;20057;-39
2021/04/23 20:07:18;;;;;;;20.83;7.25;;;;;;;18.83;61.72;99350.09;2072045;28;20030;-38
2021/04/23 20:08:20;;;;;;;17.38;6.18;;;;;;;19.81;55.48;99190.94;2069547;28;20125;-47
2021/04/23 20:09:21;;;;;;;40.78;12.07;;;;;;;20.38;48.70;99256.75;2070330;28;20054;-44
2021/04/23 20:10:22;;;;;;;;;;;;;;;20.66;48.42;99262.75;2072902;28;20053;-28
2021/04/23 20:11:26;;;;;;;33.95;9.15;;;;;;;20.51;46.78;99295.22;2060963;28;20387;-34
2021/04/23 20:12:39;;;;;;;54.08;14.10;;;;;;;20.17;48.02;99263.22;2071217;28;20836;-50
2021/04/23 20:13:40;;;;;;;46.38;12.10;;;;;;;20.01;47.88;99246.97;2072301;28;20050;-43
2021/04/23 20:14:41;;;;;;;;;;;;;;;20.18;49.19;99172.84;2071617;28;20100;-41
2021/04/23 20:15:42;;;;;;;8.02;5.85;;;;;;;19.38;44.54;99184.00;2072870;28;20374;-59
2021/04/23 20:16:47;;;;;;;7.00;5.15;;;;;;;18.05;45.82;99172.38;2071978;28;20078;-58
2021/04/23 20:17:48;;;;;;;;;;;;;;;17.73;48.28;99174.97;2070891;28;20148;-61
2021/04/23 20:18:50;;;;;;;6.10;5.28;;;;;;;15.45;51.18;99167.53;2072820;28;19933;-63
2021/04/23 20:19:51;;;;;;;8.50;5.55;;;;;;;14.17;53.18;99162.03;2071592;28;20038;-58
2021/04/23 20:20:53;;;;;;;5.43;4.10;;;;;;;13.84;61.88;98954.44;2050026;28;20487;-75
2021/04/23 20:21:55;;;;;;;11.95;7.82;;;;;;;14.46;65.93;98923.56;2068857;28;20152;-44
2021/04/23 20:22:56;;;;;;;5.10;2.55;;;;;;;15.73;66.41;98922.28;2077774;28;20049;-46
2021/04/23 20:23:57;;;;;;;4.10;2.10;;;;;;;17.11;60.39;98933.81;2072171;28;20057;-56
2021/04/23 20:24:58;;;;;;;2.67;1.90;;;;;;;18.25;58.85;98924.38;2072874;28;20054;-60
2021/04/23 20:25:59;;;;;;;;;;;;;;;18.68;57.19;98927.72;2073885;28;20050;-58
2021/04/23 20:27:01;;;;;;;5.50;2.58;;;;;;;19.80;54.94;98920.75;2066478;28;19953;-59
2021/04/23 20:28:02;;;;;;;3.47;1.88;;;;;;;20.60;52.25;98925.34;2070843;28;20054;-56
2021/04/23 20:29:03;;;;;;;5.03;1.77;;;;;;;21.23;50.37;98924.69;2068944;28;20482;-59
2021/04/23 20:30:16;;;;;;;4.35;1.77;;;;;;;21.71;49.17;98936.50;2072364;28;20042;-58
2021/04/23 20:31:17;;;;;;;4.72;1.73;;;;;;;22.18;47.82;98925.94;2072402;28;20042;-58
2021/04/23 20:32:18;;;;;;;4.43;1.70;;;;;;;22.53;46.51;98921.19;2072570;28;20044;-56
2021/04/23 20:33:19;;;;;;;9.85;2.80;;;;;;;22.81;46.72;98924.88;2068919;28;20053;-57
2021/04/23 20:34:20;;;;;;;;;;;;;;;22.90;47.33;98925.00;2073187;28;20046;-58
2021/04/23 20:35:22;;;;;;;4.00;1.80;;;;;;;23.21;46.84;98919.94;2072777;28;19968;-57
2021/04/23 20:36:23;;;;;;;3.58;1.83;;;;;;;23.44;45.95;98926.34;2072415;28;20045;-57
2021/04/23 20:37:24;;;;;;;4.00;2.05;;;;;;;23.61;45.49;98925.78;2072671;28;20090;-56
2021/04/23 20:38:25;;;;;;;5.05;1.73;;;;;;;23.77;47.73;98924.41;2071785;28;20069;-57
2021/04/23 20:39:27;;;;;;;5.63;2.00;;;;;;;23.89;47.86;98922.03;2071436;28;20038;-57
2021/04/23 20:40:29;;;;;;;3.45;1.70;;;;;;;24.00;47.00;98925.34;2072168;28;20049;-57
2021/04/23 20:41:33;;;;;;;3.50;1.80;;;;;;;24.10;46.43;98927.88;2072426;28;20124;-57
2021/04/23 20:42:34;;;;;;;4.70;2.00;;;;;;;24.18;45.87;98929.09;2072253;28;20252;-56
2021/04/23 20:43:35;;;;;;;2.83;1.95;;;;;;;24.21;45.95;98923.03;2072398;28;20050;-57
2021/04/23 20:44:36;;;;;;;6.32;1.90;;;;;;;24.31;45.67;98928.25;2072401;28;20050;-56
2021/04/23 20:45:38;;;;;;;6.35;2.05;;;;;;;24.38;45.13;98934.13;2072271;28;20122;-57
2021/04/23 20:46:39;;;;;;;3.33;1.77;;;;;;;24.43;45.11;98929.69;2072505;28;20045;-56
2021/04/23 20:47:50;;;;;;;2.65;1.85;;;;;;;24.48;45.34;98935.06;2072218;28;20044;-58
2021/04/23 20:49:01;;;;;;;4.15;1.65;;;;;;;24.53;45.85;98932.22;2072110;28;20490;-58
2021/04/23 20:50:11;;;;;;;3.85;1.75;;;;;;;24.56;45.36;98932.41;2072284;28;20038;-59
2021/04/23 20:51:25;;;;;;;4.40;1.30;;;;;;;24.61;44.78;98936.16;2072486;28;20116;-57
2021/04/23 20:52:38;;;;;;;4.35;1.73;;;;;;;24.65;44.46;98940.66;2071832;28;20057;-58
2021/04/23 20:53:39;;;;;;;3.40;1.40;;;;;;;24.69;43.42;98938.94;2071011;28;20503;-58
2021/04/23 20:54:40;;;;;;;3.90;1.88;;;;;;;24.72;44.08;98938.31;2072267;28;20116;-58
2021/04/23 20:55:41;;;;;;;;;;;;;;;24.76;44.20;98942.06;2072725;28;20477;-59
2021/04/23 20:56:42;;;;;;;4.45;2.15;;;;;;;24.78;44.38;98936.28;2072197;28;20016;-58
2021/04/23 20:57:42;;;;;;;;;;;;;;;24.81;44.54;98943.88;2072638;28;20136;-58
2021/04/23 20:58:44;;;;;;;4.60;1.95;;;;;;;24.81;43.13;98938.41;2072705;28;19902;-57
2021/04/23 20:59:45;;;;;;;3.92;1.40;;;;;;;24.85;43.49;98931.22;2072678;28;20042;-58
2021/04/23 21:00:48;;;;;;;;;;;;;;;24.88;43.92;98938.78;2073007;28;20045;-62
2021/04/23 21:01:49;;;;;;;4.18;1.55;;;;;;;24.88;44.77;98930.59;2072589;28;20177;-82
2021/04/23 21:02:51;;;;;;;4.47;1.55;;;;;;;24.99;45.03;98925.75;2063457;28;20478;-76
2021/04/23 21:03:51;;;;;;;;;;;;;;;25.13;44.97;98936.59;2063737;28;20482;-74
2021/04/23 21:04:52;;;;;;;3.88;1.17;;;;;;;25.13;45.75;98934.66;2072123;28;19918;-73
2021/04/23 21:05:56;;;;;;;4.72;1.85;;;;;;;25.20;44.97;98931.53;2072279;28;20038;-72
2021/04/23 21:07:01;;;;;;;3.75;1.85;;;;;;;25.28;45.70;98932.72;2071895;28;20528;-73
2021/04/23 21:08:02;;;;;;;6.47;1.73;;;;;;;25.26;44.78;98919.38;2067485;28;20042;-72
2021/04/23 21:09:03;;;;;;;2.70;1.42;;;;;;;25.31;44.53;98927.44;2057523;28;20039;-74
2021/04/23 21:10:05;;;;;;;1.88;1.38;;;;;;;25.33;44.69;98913.50;2058010;28;20038;-73
2021/04/23 21:11:06;;;;;;;4.72;1.40;;;;;;;25.36;44.87;98912.88;2058092;28;20161;-74
2021/04/23 21:12:08;;;;;;;2.72;1.35;;;;;;;25.38;44.42;98913.38;2066201;28;20046;-72
2021/04/23 21:13:09;;;;;;;4.18;1.58;;;;;;;25.38;43.57;98918.81;2067328;28;20193;-73
2021/04/23 21:14:11;;;;;;;3.70;1.60;;;;;;;25.39;44.10;98917.69;2058291;28;20076;-72
2021/04/23 21:15:13;;;;;;;2.65;1.35;;;;;;;25.40;44.93;98908.38;2058280;28;20396;-74
2021/04/23 21:16:14;;;;;;;4.10;1.83;;;;;;;25.39;44.57;98912.25;2065692;28;20077;-71
2021/04/23 21:17:15;;;;;;;3.22;2.38;;;;;;;25.35;44.01;98906.63;2065771;28;20046;-84
2021/04/23 21:18:16;;;;;;;5.07;2.22;;;;;;;25.41;43.81;98912.75;2066255;28;20067;-78
2021/04/23 21:19:18;;;;;;;2.35;1.42;;;;;;;25.39;44.52;98907.59;2058746;28;20043;-83
2021/04/23 21:20:19;;;;;;;2.67;1.23;;;;;;;25.36;44.20;98905.50;2066065;28;20061;-81
2021/04/23 21:21:21;;;;;;;2.45;1.33;;;;;;;25.37;44.43;98909.81;2066652;28;20403;-87
2021/04/23 21:22:24;;;;;;;3.40;1.33;;;;;;;25.38;44.37;98908.72;2061269;28;20101;-83
2021/04/23 21:23:25;;;;;;;3.65;1.35;;;;;;;25.35;44.54;98903.06;2064869;28;20516;-84
2021/04/23 21:24:26;;;;;;;2.55;1.30;;;;;;;25.35;44.44;98903.06;2068489;28;20050;-83
2021/04/23 21:25:28;;;;;;;2.92;1.33;;;;;;;25.31;44.53;98897.44;2066623;28;20085;-86
2021/04/23 21:26:29;;;;;;;4.93;1.77;;;;;;;25.31;44.60;98891.97;2058542;28;20042;-77
2021/04/23 21:27:32;;;;;;;3.38;1.45;;;;;;;25.29;44.19;98890.69;2066048;28;20562;-72
2021/04/23 21:28:33;;;;;;;3.85;1.80;;;;;;;25.24;43.99;98892.41;2066674;28;20048;-73
2021/04/23 21:29:34;;;;;;;3.60;1.65;;;;;;;25.23;43.91;98885.34;2066114;28;20471;-76
2021/04/23 21:30:35;;;;;;;2.65;1.30;;;;;;;25.20;43.49;98885.97;2058134;28;20047;-72
2021/04/23 21:31:38;;;;;;;3.63;1.63;;;;;;;25.22;43.70;98891.09;2065796;28;20061;-72
2021/04/23 21:32:39;;;;;;;1.88;1.33;;;;;;;25.20;43.73;98882.44;2065711;28;20199;-73
2021/04/23 21:33:40;;;;;;;2.20;1.55;;;;;;;25.18;43.67;98880.03;2066182;28;20093;-73
2021/04/23 21:34:41;;;;;;;1.67;1.25;;;;;;;25.17;43.71;98881.16;2066551;28;20111;-73
2021/04/23 21:35:43;;;;;;;2.38;1.48;;;;;;;25.16;43.19;98879.53;2066308;28;20054;-72
2021/04/23 21:36:44;;;;;;;4.00;1.10;;;;;;;25.15;43.06;98871.63;2065805;28;20535;-70
2021/04/23 21:37:45;;;;;;;3.05;1.70;;;;;;;25.14;43.10;98880.91;2066290;28;20518;-72
2021/04/23 21:38:46;;;;;;;2.72;1.17;;;;;;;25.13;43.45;98874.66;2065629;28;20077;-75
2021/04/23 21:39:49;;;;;;;;;;;;;;;25.21;43.54;98873.94;2064837;28;22040;-70
2021/04/23 21:40:50;;;;;;;3.38;1.83;;;;;;;25.12;44.21;98878.50;2066288;28;19981;-72
